Time;durP1;ratioP1;P1;durP2;ratioP2;P2;SDS_P1;SDS_P2;PMS_P1;PMS_P2;Temp;Humidity;BMP_temperature;BMP_pressure;BME280_temperature;BME280_humidity;BME280_pressure;Samples;Min_cycle;Max_cycle;Signal;HPM_P1;HPM_P2
2021/10/25 00:02:16;;;;;;;54.75;41.77;;;;;;;21.99;50.48;102475.20;1748889;81;21008;-46
2021/10/25 00:04:42;;;;;;;60.92;42.55;;;;;;;21.98;50.49;102472.73;1742070;80;21559;-46
2021/10/25 00:07:08;;;;;;;55.83;40.08;;;;;;;21.97;50.49;102476.61;1749310;80;21049;-46
2021/10/25 00:09:34;;;;;;;54.77;39.55;;;;;;;21.97;50.50;102481.61;1746015;80;20960;-47
2021/10/25 00:12:00;;;;;;;55.55;40.67;;;;;;;21.97;50.51;102480.22;1751040;80;20951;-47
2021/10/25 00:14:26;;;;;;;54.67;40.63;;;;;;;21.96;50.50;102486.87;1750517;80;21702;-46
2021/10/25 00:16:52;;;;;;;56.73;39.75;;;;;;;21.97;50.51;102484.92;1746250;81;21040;-46
2021/10/25 00:19:19;;;;;;;51.63;39.13;;;;;;;21.95;50.53;102477.45;1739996;80;21033;-47
2021/10/25 00:21:46;;;;;;;54.80;38.75;;;;;;;21.94;50.55;102477.20;1743371;80;21726;-47
2021/10/25 00:24:12;;;;;;;54.83;37.73;;;;;;;21.94;50.58;102485.52;1739535;81;21095;-48
2021/10/25 00:26:38;;;;;;;51.48;37.10;;;;;;;21.94;50.58;102479.97;1737964;80;21493;-45
2021/10/25 00:29:04;;;;;;;51.08;36.70;;;;;;;21.92;50.58;102477.47;1741783;81;20880;-47
2021/10/25 00:31:30;;;;;;;49.08;36.08;;;;;;;21.92;50.61;102470.55;1743541;80;21463;-48
2021/10/25 00:33:56;;;;;;;48.48;34.73;;;;;;;21.93;50.61;102477.75;1738918;80;21282;-45
2021/10/25 00:36:22;;;;;;;45.25;35.48;;;;;;;21.92;50.61;102473.31;1740715;81;21532;-46
2021/10/25 00:38:48;;;;;;;46.98;34.70;;;;;;;21.92;50.61;102475.22;1738780;80;20948;-46
2021/10/25 00:41:15;;;;;;;48.65;35.70;;;;;;;21.91;50.63;102478.55;1743305;81;21698;-49
2021/10/25 00:43:41;;;;;;;46.58;33.55;;;;;;;21.91;50.62;102474.95;1743120;81;21127;-46
2021/10/25 00:46:07;;;;;;;45.88;33.42;;;;;;;21.91;50.64;102476.33;1741825;80;21320;-46
2021/10/25 00:48:34;;;;;;;49.48;34.45;;;;;;;21.89;50.69;102472.48;1742081;81;21028;-46
2021/10/25 00:51:02;;;;;;;44.65;34.33;;;;;;;21.88;50.69;102467.49;1743721;81;21518;-46
2021/10/25 00:53:28;;;;;;;45.28;32.83;;;;;;;21.88;50.70;102466.11;1742897;81;21491;-46
2021/10/25 00:55:55;;;;;;;43.68;32.30;;;;;;;21.87;50.70;102458.90;1744503;81;21549;-46
2021/10/25 00:58:21;;;;;;;45.30;32.20;;;;;;;21.88;50.71;102455.02;1741266;80;21151;-46
2021/10/25 01:00:47;;;;;;;44.05;31.90;;;;;;;21.87;50.71;102459.45;1746878;80;21094;-48
2021/10/25 01:03:13;;;;;;;42.70;30.97;;;;;;;21.87;50.72;102453.36;1745234;81;21103;-45
2021/10/25 01:05:39;;;;;;;41.05;30.85;;;;;;;21.88;50.72;102456.96;1739353;81;21143;-45
2021/10/25 01:08:06;;;;;;;42.38;30.88;;;;;;;21.86;50.73;102457.23;1741925;80;21103;-46
2021/10/25 01:10:32;;;;;;;41.50;31.25;;;;;;;21.85;50.72;102447.27;1739269;81;22300;-46
2021/10/25 01:12:58;;;;;;;40.58;30.12;;;;;;;21.85;50.73;102454.19;1741682;80;20912;-46
2021/10/25 01:15:26;;;;;;;38.30;28.92;;;;;;;21.84;50.77;102445.62;1748403;80;21702;-45
2021/10/25 01:17:57;;;;;;;39.33;29.42;;;;;;;21.84;50.79;102451.72;1747708;80;21035;-46
2021/10/25 01:20:27;;;;;;;40.17;28.70;;;;;;;21.84;50.79;102453.11;1747835;81;21486;-45
2021/10/25 01:22:54;;;;;;;38.23;28.65;;;;;;;21.83;50.80;102448.67;1746437;81;21072;-46
2021/10/25 01:25:21;;;;;;;37.90;28.00;;;;;;;21.82;50.80;102453.94;1742653;81;21071;-47
2021/10/25 01:27:47;;;;;;;36.48;27.58;;;;;;;21.82;50.78;102459.48;1742784;81;21490;-47
2021/10/25 01:30:13;;;;;;;37.00;27.62;;;;;;;21.82;50.79;102459.48;1740993;81;21116;-46
2021/10/25 01:32:41;;;;;;;35.90;26.73;;;;;;;21.81;50.78;102454.48;1743937;80;21523;-48
2021/10/25 01:35:08;;;;;;;37.95;27.93;;;;;;;21.80;50.80;102448.70;1722169;81;21509;-47
2021/10/25 01:37:34;;;;;;;37.23;27.30;;;;;;;21.79;50.78;102452.58;1744819;80;21063;-46
2021/10/25 01:40:00;;;;;;;34.43;26.20;;;;;;;21.79;50.81;102451.20;1750907;81;21011;-46
2021/10/25 01:42:27;;;;;;;36.28;26.15;;;;;;;21.79;50.81;102459.50;1747407;81;21127;-48
2021/10/25 01:44:53;;;;;;;34.55;24.67;;;;;;;21.79;50.84;102455.91;1745380;81;21112;-46
2021/10/25 01:47:19;;;;;;;35.20;25.00;;;;;;;21.78;50.85;102460.61;1743915;81;21997;-47
2021/10/25 01:49:46;;;;;;;32.60;24.60;;;;;;;21.78;50.84;102462.00;1744216;81;21056;-48
2021/10/25 01:52:14;;;;;;;34.67;25.32;;;;;;;21.79;50.84;102466.98;1742038;81;21082;-46
2021/10/25 01:54:40;;;;;;;32.45;23.95;;;;;;;21.77;50.84;102463.66;1737833;81;21068;-46
2021/10/25 01:57:08;;;;;;;34.33;24.45;;;;;;;21.78;50.85;102463.94;1743520;81;21010;-47
2021/10/25 01:59:35;;;;;;;34.43;24.43;;;;;;;21.76;50.84;102462.02;1746248;81;21345;-48
2021/10/25 02:02:02;;;;;;;30.60;22.90;;;;;;;21.76;50.83;102459.25;1750893;81;21499;-47
2021/10/25 02:04:29;;;;;;;30.40;22.62;;;;;;;21.76;50.83;102466.18;1750111;81;21123;-47
2021/10/25 02:06:55;;;;;;;32.42;24.27;;;;;;;21.74;50.84;102466.45;1747006;81;21621;-47
2021/10/25 02:09:21;;;;;;;29.57;22.93;;;;;;;21.74;50.85;102463.69;1742102;81;20931;-47
2021/10/25 02:11:48;;;;;;;32.63;23.25;;;;;;;21.74;50.86;102466.45;1744267;81;21990;-47
2021/10/25 02:14:14;;;;;;;32.17;22.82;;;;;;;21.73;50.88;102462.02;1742780;81;21094;-46
2021/10/25 02:16:40;;;;;;;29.87;22.13;;;;;;;21.73;50.88;102460.63;1743749;81;21077;-48
2021/10/25 02:19:06;;;;;;;28.98;21.62;;;;;;;21.72;50.89;102456.23;1748720;80;21496;-45
2021/10/25 02:21:32;;;;;;;27.27;20.88;;;;;;;21.71;50.89;102472.58;1747608;81;21016;-45
2021/10/25 02:23:58;;;;;;;28.70;21.70;;;;;;;21.72;50.88;102475.62;1741784;81;21566;-47
2021/10/25 02:26:24;;;;;;;28.02;21.00;;;;;;;21.72;50.87;102477.01;1745965;81;20985;-46
2021/10/25 02:28:50;;;;;;;28.80;20.55;;;;;;;21.70;50.86;102470.91;1743731;81;21722;-47
2021/10/25 02:31:18;;;;;;;28.23;20.85;;;;;;;21.69;50.88;102470.63;1744289;81;21004;-48
2021/10/25 02:33:44;;;;;;;26.50;19.95;;;;;;;21.69;50.88;102475.34;1748377;81;21041;-46
2021/10/25 02:36:11;;;;;;;27.22;21.20;;;;;;;21.68;50.89;102471.77;1742941;81;22595;-45
2021/10/25 02:38:37;;;;;;;28.85;20.40;;;;;;;21.68;50.90;102470.94;1772908;79;21044;-46
2021/10/25 02:41:05;;;;;;;27.48;19.55;;;;;;;21.67;50.89;102468.72;1772998;79;21317;-48
2021/10/25 02:43:32;;;;;;;26.25;18.98;;;;;;;21.67;50.91;102465.95;1770340;80;21365;-48
2021/10/25 02:45:59;;;;;;;26.82;19.65;;;;;;;21.67;50.90;102459.58;1771405;80;21463;-45
2021/10/25 02:48:26;;;;;;;26.93;18.27;;;;;;;21.66;50.90;102461.52;1732519;82;21100;-46
2021/10/25 02:50:52;;;;;;;23.70;17.98;;;;;;;21.66;50.87;102463.45;1773467;79;21077;-44
2021/10/25 02:53:20;;;;;;;25.05;18.70;;;;;;;21.65;50.86;102458.47;1773661;79;21055;-44
2021/10/25 02:55:47;;;;;;;22.85;16.93;;;;;;;21.65;50.86;102461.23;1773167;79;21101;-44
2021/10/25 02:58:14;;;;;;;24.25;18.00;;;;;;;21.64;50.85;102462.34;1772821;79;21045;-44
2021/10/25 03:00:41;;;;;;;25.45;18.02;;;;;;;21.63;50.88;102462.09;1772185;79;21440;-45
2021/10/25 03:03:09;;;;;;;23.22;18.00;;;;;;;21.62;50.91;102460.43;1767315;79;20984;-44
2021/10/25 03:05:35;;;;;;;24.02;18.02;;;;;;;21.62;50.92;102461.81;1757836;80;21107;-44
2021/10/25 03:08:02;;;;;;;25.88;17.30;;;;;;;21.61;50.93;102457.37;1736435;80;21116;-45
2021/10/25 03:10:28;;;;;;;22.07;16.95;;;;;;;21.61;50.93;102458.77;1759152;80;21517;-44
2021/10/25 03:12:54;;;;;;;23.95;17.20;;;;;;;21.63;50.93;102458.49;1738533;82;21328;-44
2021/10/25 03:15:20;;;;;;;20.85;16.15;;;;;;;21.65;50.92;102457.63;1761107;80;20996;-46
2021/10/25 03:17:47;;;;;;;19.60;15.03;;;;;;;21.65;50.92;102461.23;1758678;80;21472;-44
2021/10/25 03:20:13;;;;;;;20.08;15.38;;;;;;;21.66;50.93;102455.98;1763389;79;21127;-44
2021/10/25 03:22:40;;;;;;;20.37;15.43;;;;;;;21.67;50.95;102457.64;1760196;80;21000;-45
2021/10/25 03:25:07;;;;;;;18.32;13.83;;;;;;;21.68;50.97;102462.62;1759611;80;22438;-46
2021/10/25 03:27:34;;;;;;;14.95;11.68;;;;;;;21.70;51.00;102457.61;1784938;79;21466;-44
2021/10/25 03:30:00;;;;;;;17.87;12.70;;;;;;;21.69;50.99;102459.55;1778351;80;21017;-45
2021/10/25 03:32:27;;;;;;;19.15;14.18;;;;;;;21.71;51.01;102462.88;1780921;80;21703;-45
2021/10/25 03:34:53;;;;;;;17.05;12.68;;;;;;;21.73;51.02;102459.80;1778069;80;21389;-44
2021/10/25 03:37:19;;;;;;;14.40;11.45;;;;;;;21.73;51.04;102452.88;1776696;80;21888;-45
2021/10/25 03:39:48;;;;;;;17.00;12.90;;;;;;;21.74;51.06;102456.76;1753414;81;21111;-44
2021/10/25 03:42:23;;;;;;;15.08;11.18;;;;;;;21.75;51.07;102450.66;1752417;81;21047;-46
2021/10/25 03:44:53;;;;;;;12.93;9.88;;;;;;;21.76;51.11;102456.48;1753732;81;21443;-45
2021/10/25 03:47:29;;;;;;;13.18;9.48;;;;;;;21.77;51.11;102454.80;1764433;80;21050;-46
2021/10/25 03:52:31;;;;;;;12.43;9.45;;;;;;;21.79;51.16;102457.29;1768637;79;21554;-46
2021/10/25 04:25:13;;;;;;;11.35;7.75;;;;;;;21.84;51.37;102454.49;1768502;79;21494;-47
2021/10/25 04:29:38;;;;;;;10.05;7.87;;;;;;;21.87;51.52;102449.76;1767782;80;21095;-47
2021/10/25 04:32:07;;;;;;;11.18;8.35;;;;;;;21.86;51.53;102446.16;1762011;79;21099;-46
2021/10/25 04:34:34;;;;;;;12.73;9.15;;;;;;;21.87;51.55;102447.81;1766520;79;21158;-46
2021/10/25 04:37:00;;;;;;;12.98;9.23;;;;;;;21.88;51.55;102450.87;1768987;79;21576;-46
2021/10/25 04:39:27;;;;;;;11.18;8.70;;;;;;;21.89;51.59;102454.47;1763855;81;21071;-46
2021/10/25 04:41:53;;;;;;;13.55;8.58;;;;;;;21.89;51.60;102455.85;1764120;81;21329;-46
2021/10/25 04:44:19;;;;;;;11.65;9.33;;;;;;;21.90;51.63;102450.56;1760648;81;20952;-47
2021/10/25 04:46:45;;;;;;;12.63;9.25;;;;;;;21.90;51.60;102455.30;1764057;79;21431;-48
2021/10/25 04:49:11;;;;;;;13.13;9.70;;;;;;;21.91;51.64;102458.31;1764359;79;20902;-47
2021/10/25 04:51:37;;;;;;;10.68;8.90;;;;;;;21.90;51.62;102453.33;1764261;79;21679;-47
2021/10/25 04:54:03;;;;;;;11.97;7.95;;;;;;;21.91;51.62;102457.77;1764359;81;21124;-47
2021/10/25 04:56:30;;;;;;;11.25;8.90;;;;;;;21.90;51.63;102455.30;1764216;80;21696;-45
2021/10/25 04:58:56;;;;;;;13.65;8.83;;;;;;;21.91;51.63;102454.99;1761509;79;21063;-46
2021/10/25 05:01:22;;;;;;;9.30;7.53;;;;;;;21.91;51.62;102459.15;1762986;81;20909;-46
2021/10/25 05:03:48;;;;;;;10.93;8.13;;;;;;;21.92;51.61;102465.00;1760904;81;20941;-47
2021/10/25 05:06:18;;;;;;;13.70;9.43;;;;;;;21.92;51.63;102466.39;1762391;79;22112;-46
2021/10/25 05:08:48;;;;;;;17.37;10.28;;;;;;;21.93;51.63;102473.59;1763759;79;22292;-46
2021/10/25 05:11:14;;;;;;;14.83;8.73;;;;;;;21.93;51.63;102476.92;1755944;79;21097;-47
2021/10/25 05:13:40;;;;;;;18.02;9.68;;;;;;;21.93;51.63;102483.84;1757085;79;21123;-45
2021/10/25 05:16:07;;;;;;;45.83;16.17;;;;;;;21.93;51.65;102481.08;1759976;81;21012;-44
2021/10/25 05:18:33;;;;;;;16.50;9.75;;;;;;;21.93;51.66;102486.62;1758016;79;21199;-46
2021/10/25 05:20:59;;;;;;;51.15;19.92;;;;;;;21.93;51.65;102488.00;1755915;79;21072;-45
2021/10/25 05:23:25;;;;;;;28.62;14.23;;;;;;;21.92;51.57;102494.62;1753990;79;21162;-45
2021/10/25 05:25:51;;;;;;;64.27;22.55;;;;;;;21.91;51.53;102488.80;1761701;80;21067;-45
2021/10/25 05:28:18;;;;;;;36.50;16.25;;;;;;;21.93;51.52;102497.70;1758766;79;21065;-47
2021/10/25 05:30:44;;;;;;;23.92;11.88;;;;;;;21.93;51.58;102504.08;1762269;79;21071;-45
2021/10/25 05:33:10;;;;;;;39.55;17.57;;;;;;;21.93;51.64;102505.47;1761166;79;21024;-45
2021/10/25 05:35:40;;;;;;;36.25;14.80;;;;;;;21.94;51.69;102514.02;1763460;79;21162;-44
2021/10/25 05:38:12;;;;;;;23.13;10.10;;;;;;;21.94;51.72;102510.45;1741453;80;21123;-45
2021/10/25 05:40:40;;;;;;;15.70;8.70;;;;;;;21.95;51.75;102514.86;1696113;83;21010;-45
2021/10/25 05:43:08;;;;;;;16.97;9.28;;;;;;;21.95;51.74;102519.02;1714292;80;21954;-45
2021/10/25 05:45:34;;;;;;;18.17;10.75;;;;;;;21.94;51.76;102522.92;1739136;81;21566;-49
2021/10/25 05:48:00;;;;;;;20.43;9.58;;;;;;;21.94;51.75;102522.92;1745532;80;21048;-45
2021/10/25 05:50:27;;;;;;;16.95;10.75;;;;;;;21.94;51.78;102522.92;1755336;80;21652;-45
2021/10/25 05:52:54;;;;;;;15.60;10.18;;;;;;;21.94;51.82;102525.70;1749789;80;21514;-48
2021/10/25 05:55:24;;;;;;;21.27;10.13;;;;;;;21.94;51.83;102525.11;1757637;80;21530;-45
2021/10/25 05:57:56;;;;;;;15.03;9.48;;;;;;;21.95;51.88;102535.64;1752647;80;21186;-45
2021/10/25 06:00:29;;;;;;;16.02;10.05;;;;;;;21.94;51.91;102535.39;1751465;80;21100;-47
2021/10/25 06:02:53;;;;;;;17.55;9.55;;;;;;;21.94;51.92;102532.63;1751171;81;21530;-45
2021/10/25 06:05:21;;;;;;;19.90;10.63;;;;;;;21.94;51.94;102533.42;1751785;80;22232;-47
2021/10/25 06:07:48;;;;;;;15.20;9.43;;;;;;;21.94;51.96;102539.55;1724710;81;22358;-46
2021/10/25 06:10:17;;;;;;;14.33;8.50;;;;;;;21.93;51.99;102544.26;1745027;81;21432;-46
2021/10/25 06:12:46;;;;;;;17.45;9.65;;;;;;;21.93;51.99;102543.43;1742242;81;22002;-45
2021/10/25 06:15:17;;;;;;;21.80;10.23;;;;;;;21.93;52.02;102543.43;1742399;81;21448;-45
2021/10/25 06:17:50;;;;;;;15.72;8.40;;;;;;;21.92;52.04;102534.80;1742042;81;21131;-45
2021/10/25 06:20:11;;;;;;;14.18;8.43;;;;;;;21.92;52.06;102541.21;1738603;81;22917;-44
2021/10/25 06:22:38;;;;;;;14.63;8.28;;;;;;;21.92;52.06;102544.50;1744623;80;21545;-44
2021/10/25 06:25:09;;;;;;;18.20;8.55;;;;;;;21.92;52.10;102547.27;1739830;81;21986;-44
2021/10/25 06:27:35;;;;;;;15.88;8.45;;;;;;;21.91;52.13;102554.75;1737129;81;21071;-44
2021/10/25 06:30:01;;;;;;;17.10;8.55;;;;;;;21.91;52.12;102557.52;1747067;81;20911;-45
2021/10/25 06:32:27;;;;;;;12.50;7.62;;;;;;;21.91;52.14;102566.39;1750464;81;21627;-43
2021/10/25 06:34:55;;;;;;;14.63;7.60;;;;;;;21.91;52.14;102566.39;1752908;81;21067;-46
2021/10/25 06:37:26;;;;;;;12.65;8.35;;;;;;;21.90;52.14;102571.69;1750368;81;21389;-48
2021/10/25 06:39:57;;;;;;;17.40;8.33;;;;;;;21.90;52.14;102571.69;1756365;79;21122;-45
2021/10/25 06:42:20;;;;;;;12.68;8.70;;;;;;;21.88;52.14;102571.95;1762174;79;21144;-45
2021/10/25 06:44:50;;;;;;;14.45;7.85;;;;;;;21.88;52.13;102573.34;1765067;79;21985;-46
2021/10/25 06:47:15;;;;;;;12.28;7.83;;;;;;;21.87;52.14;102567.52;1765400;79;21050;-47
2021/10/25 06:49:41;;;;;;;11.88;7.20;;;;;;;21.87;52.14;102566.13;1769178;79;22180;-45
2021/10/25 06:52:07;;;;;;;12.30;7.87;;;;;;;21.86;52.14;102563.91;1767512;79;20929;-45
2021/10/25 06:54:33;;;;;;;13.75;6.92;;;;;;;21.87;52.14;102564.75;1770353;79;21075;-45
2021/10/25 06:56:59;;;;;;;13.45;7.80;;;;;;;21.86;52.14;102572.23;1764819;79;21106;-46
2021/10/25 06:59:25;;;;;;;15.08;7.45;;;;;;;21.85;52.13;102569.17;1766645;79;21051;-47
2021/10/25 07:01:52;;;;;;;12.30;7.35;;;;;;;21.85;52.13;102569.17;1765071;79;21065;-46
2021/10/25 07:04:19;;;;;;;11.60;7.05;;;;;;;21.84;52.12;102571.70;1766606;79;21057;-46
2021/10/25 07:06:45;;;;;;;16.37;8.38;;;;;;;21.85;52.10;102570.56;1768057;80;21067;-46
2021/10/25 07:09:11;;;;;;;13.45;7.25;;;;;;;21.83;52.09;102567.27;1766966;79;22242;-46
2021/10/25 07:11:43;;;;;;;12.53;7.08;;;;;;;21.83;52.10;102567.27;1764444;79;21056;-47
2021/10/25 07:14:07;;;;;;;12.95;7.03;;;;;;;21.83;52.08;102569.20;1769856;79;21463;-46
2021/10/25 07:16:40;;;;;;;12.65;7.15;;;;;;;21.82;52.07;102562.83;1767705;79;21091;-47
2021/10/25 07:22:10;;;;;;;11.20;6.97;;;;;;;21.81;52.07;102568.09;1762979;79;23339;-45
2021/10/25 07:27:42;;;;;;;12.75;6.92;;;;;;;21.81;52.02;102563.94;1766721;79;21085;-47
2021/10/25 08:03:08;;;;;;;10.70;6.47;;;;;;;21.68;51.87;102556.81;1760509;80;21903;-48
2021/10/25 08:05:33;;;;;;;10.28;6.42;;;;;;;21.67;51.85;102558.75;1743534;80;21189;-47
2021/10/25 08:10:14;;;;;;;9.80;6.03;;;;;;;21.66;51.77;102550.16;1756278;80;20920;-46
2021/10/25 08:12:45;;;;;;;10.63;6.03;;;;;;;21.65;51.76;102542.95;1759640;79;21076;-45
2021/10/25 08:15:10;;;;;;;8.93;6.15;;;;;;;21.67;51.72;102552.37;1758690;79;21461;-49
2021/10/25 08:17:43;;;;;;;8.55;6.00;;;;;;;21.65;51.67;102549.88;1754199;79;21572;-46
2021/10/25 08:20:05;;;;;;;10.85;5.60;;;;;;;21.66;51.62;102550.70;1759652;79;21155;-49
2021/10/25 08:22:33;;;;;;;8.88;5.62;;;;;;;21.65;51.60;102547.11;1756927;79;21084;-46
2021/10/25 08:24:59;;;;;;;7.60;5.17;;;;;;;21.65;51.55;102542.95;1757003;79;21160;-45
2021/10/25 08:27:26;;;;;;;7.80;5.85;;;;;;;21.65;51.53;102540.73;1758829;79;22004;-45
2021/10/25 08:29:52;;;;;;;8.38;5.12;;;;;;;21.65;51.47;102541.56;1758014;79;21076;-45
2021/10/25 08:40:19;;;;;;;8.98;5.17;;;;;;;21.63;51.39;102535.50;1745942;81;21916;-46
2021/10/25 08:42:45;;;;;;;9.75;5.50;;;;;;;21.63;51.34;102529.13;1744848;81;21112;-47
2021/10/25 08:45:17;;;;;;;9.53;5.25;;;;;;;21.63;51.30;102534.66;1742642;81;21317;-47
2021/10/25 08:47:45;;;;;;;;;;;;;;;21.62;51.28;102531.61;1741426;80;21048;-48
2021/10/25 08:50:20;;;;;;;10.08;5.78;;;;;;;21.62;51.27;102527.46;1742588;81;20250;-46
2021/10/25 08:52:47;;;;;;;8.83;5.28;;;;;;;21.60;51.28;102526.34;1743550;81;21749;-47
2021/10/25 08:55:16;;;;;;;9.40;5.45;;;;;;;21.60;51.25;102526.34;1745703;81;21155;-46
2021/10/25 08:57:42;;;;;;;9.60;5.08;;;;;;;21.59;51.24;102530.25;1740893;81;21045;-49
2021/10/25 09:00:14;;;;;;;9.40;4.70;;;;;;;21.58;51.20;102531.36;1743104;81;21595;-47
2021/10/25 09:02:42;;;;;;;9.90;5.03;;;;;;;21.60;51.19;102531.08;1740732;81;21070;-46
2021/10/25 09:05:20;;;;;;;8.23;4.85;;;;;;;21.59;51.19;102534.41;1737588;81;22131;-47
2021/10/25 09:08:04;;;;;;;7.87;5.15;;;;;;;21.59;51.17;102534.41;1745721;81;21044;-48
2021/10/25 09:10:39;;;;;;;10.20;5.40;;;;;;;21.59;51.16;102533.58;1744625;81;21077;-46
2021/10/25 09:13:18;;;;;;;8.90;5.05;;;;;;;21.59;51.11;102528.87;1743766;81;21645;-48
2021/10/25 09:15:54;;;;;;;7.80;4.95;;;;;;;21.58;51.09;102528.59;1740412;81;21603;-46
2021/10/25 09:18:26;;;;;;;8.15;5.10;;;;;;;21.58;51.09;102527.75;1739459;81;21130;-47
2021/10/25 09:20:59;;;;;;;7.05;4.87;;;;;;;21.57;51.06;102531.63;1738709;81;21074;-45
2021/10/25 09:23:34;;;;;;;8.50;5.17;;;;;;;21.56;51.06;102530.80;1744209;81;21099;-48
2021/10/25 09:26:16;;;;;;;8.30;5.08;;;;;;;21.58;51.05;102532.74;1741414;81;21107;-44
2021/10/25 09:28:55;;;;;;;8.80;4.90;;;;;;;21.56;51.05;102526.64;1739767;81;21460;-45
2021/10/25 09:31:31;;;;;;;8.95;4.67;;;;;;;21.56;51.02;102526.64;1742727;80;22283;-45
2021/10/25 09:34:00;;;;;;;7.30;4.62;;;;;;;21.56;51.01;102523.03;1743921;80;21547;-46
2021/10/25 09:36:35;;;;;;;8.00;4.53;;;;;;;21.55;51.00;102522.23;1744581;81;21076;-45
2021/10/25 09:39:15;;;;;;;7.30;4.40;;;;;;;21.56;51.00;102514.73;1738212;81;21155;-45
2021/10/25 09:49:56;;;;;;;6.65;4.85;;;;;;;21.54;50.96;102508.11;1758247;79;21089;-46
2021/10/25 09:52:31;;;;;;;9.18;4.78;;;;;;;21.54;50.95;102501.73;1759249;79;21040;-47
2021/10/25 09:55:07;;;;;;;8.30;4.35;;;;;;;21.53;50.94;102503.67;1758899;80;21068;-45
2021/10/25 09:57:49;;;;;;;6.87;3.90;;;;;;;21.53;50.94;102491.21;1759512;79;21622;-47
2021/10/25 10:00:09;;;;;;;6.92;4.17;;;;;;;21.53;50.94;102493.15;1729922;81;21091;-47
2021/10/25 10:02:35;;;;;;;7.15;4.15;;;;;;;21.54;50.94;102492.05;1761997;79;21063;-49
2021/10/25 10:05:05;;;;;;;7.85;4.40;;;;;;;21.53;50.94;102488.44;1761407;79;21837;-47
2021/10/25 10:07:30;;;;;;;9.83;4.42;;;;;;;21.54;50.93;102479.58;1758736;80;21115;-49
2021/10/25 10:09:56;;;;;;;6.67;4.72;;;;;;;21.54;50.93;102474.05;1760593;79;22604;-48
2021/10/25 10:12:24;;;;;;;7.65;4.12;;;;;;;21.53;50.93;102470.44;1759255;79;21099;-47
2021/10/25 10:14:53;;;;;;;6.15;4.42;;;;;;;21.53;50.91;102466.28;1760870;79;21023;-48
2021/10/25 10:17:23;;;;;;;8.05;4.10;;;;;;;21.53;50.91;102457.14;1760926;79;21085;-46
2021/10/25 10:19:50;;;;;;;6.25;4.12;;;;;;;21.53;50.91;102459.36;1759236;79;21479;-46
2021/10/25 10:22:17;;;;;;;8.55;4.30;;;;;;;21.53;50.91;102456.59;1760710;79;21156;-51
2021/10/25 10:24:50;;;;;;;5.80;4.10;;;;;;;21.53;50.92;102451.61;1761559;80;21069;-46
2021/10/25 10:27:23;;;;;;;5.95;4.03;;;;;;;21.52;50.92;102442.47;1756824;79;21088;-48
2021/10/25 10:29:58;;;;;;;9.45;4.78;;;;;;;21.53;50.92;102439.14;1761324;79;22357;-46
2021/10/25 10:32:28;;;;;;;6.80;3.72;;;;;;;21.53;50.91;102433.61;1757297;79;21123;-46
2021/10/25 10:34:54;;;;;;;6.90;4.25;;;;;;;21.54;50.90;102438.88;1728336;80;22016;-47
2021/10/25 10:37:27;;;;;;;5.78;3.95;;;;;;;21.53;50.89;102438.59;1729263;81;20970;-46
2021/10/25 10:40:05;;;;;;;6.47;4.45;;;;;;;21.53;50.92;102432.22;1760190;79;21701;-45
2021/10/25 10:42:35;;;;;;;6.62;4.30;;;;;;;21.52;50.89;102418.09;1759176;79;21615;-46
2021/10/25 10:45:05;;;;;;;7.62;4.58;;;;;;;21.53;50.87;102420.59;1760150;79;21045;-49
2021/10/25 10:47:39;;;;;;;6.78;4.35;;;;;;;21.52;50.87;102421.70;1759110;80;21667;-46
2021/10/25 10:49:59;;;;;;;5.45;4.17;;;;;;;21.52;50.88;102420.86;1757344;79;21067;-45
2021/10/25 10:52:30;;;;;;;8.23;4.80;;;;;;;21.53;50.89;102419.76;1759030;79;21142;-46
2021/10/25 10:55:20;;;;;;;6.60;4.50;;;;;;;21.52;50.88;102411.17;1760175;79;21489;-46
2021/10/25 11:00:35;;;;;;;6.85;4.28;;;;;;;21.53;50.89;102407.30;1761749;79;21702;-46
2021/10/25 11:03:05;;;;;;;;;;;;;;;21.53;50.89;102405.91;1706988;81;21068;-48
2021/10/25 11:05:37;;;;;;;7.15;3.47;;;;;;;21.52;50.89;102400.09;1757898;79;20514;-45
2021/10/25 11:08:12;;;;;;;8.40;4.45;;;;;;;21.50;50.90;102401.78;1759022;79;21518;-47
2021/10/25 11:10:40;;;;;;;5.58;4.15;;;;;;;21.50;50.92;102401.78;1759718;79;21073;-47
2021/10/25 11:13:13;;;;;;;6.95;4.15;;;;;;;21.51;50.90;102406.22;1759900;79;21547;-46
2021/10/25 11:15:40;;;;;;;5.85;3.80;;;;;;;21.50;50.92;102397.62;1762329;79;21079;-47
2021/10/25 11:18:04;;;;;;;7.40;4.20;;;;;;;21.49;50.90;102391.81;1761267;79;21102;-45
2021/10/25 11:20:32;;;;;;;8.35;4.17;;;;;;;21.50;50.92;102385.17;1761125;80;21501;-49
2021/10/25 11:23:04;;;;;;;13.98;4.30;;;;;;;21.50;50.89;102376.86;1762174;79;21043;-47
2021/10/25 11:25:42;;;;;;;6.85;4.17;;;;;;;21.50;50.90;102364.41;1756559;79;21142;-49
2021/10/25 11:28:15;;;;;;;6.55;4.15;;;;;;;21.50;50.88;102368.55;1762893;79;21081;-45
2021/10/25 11:30:42;;;;;;;7.65;3.98;;;;;;;21.50;50.87;102360.25;1761503;79;20996;-47
2021/10/25 11:33:08;;;;;;;4.80;3.25;;;;;;;21.50;50.86;102358.86;1735431;80;21035;-50
2021/10/25 11:35:34;;;;;;;8.83;4.00;;;;;;;21.51;50.83;102361.91;1783319;78;21075;-48
2021/10/25 11:38:02;;;;;;;7.03;3.87;;;;;;;21.50;50.82;102356.09;1768943;80;22785;-47
2021/10/25 11:40:28;;;;;;;7.12;3.80;;;;;;;21.50;50.82;102348.34;1767324;80;21442;-46
2021/10/25 11:43:00;;;;;;;5.45;3.83;;;;;;;21.51;50.81;102348.06;1758648;79;21051;-47
2021/10/25 11:45:26;;;;;;;7.70;3.80;;;;;;;21.51;50.80;102350.00;1768294;79;21130;-48
2021/10/25 11:47:52;;;;;;;7.35;4.67;;;;;;;21.50;50.76;102346.41;1764923;79;20857;-50
2021/10/25 11:50:25;;;;;;;8.00;3.75;;;;;;;21.51;50.74;102339.75;1766998;79;21272;-48
2021/10/25 11:53:04;;;;;;;6.97;3.77;;;;;;;21.50;50.75;102322.86;1768698;79;21091;-49
2021/10/25 11:55:35;;;;;;;7.47;3.65;;;;;;;21.52;50.73;102328.09;1771817;80;21052;-45
2021/10/25 11:58:04;;;;;;;;;;;;;;;21.52;50.73;102330.86;1766701;79;21083;-49
2021/10/25 12:00:34;;;;;;;5.78;3.92;;;;;;;21.51;50.69;102327.84;1768024;79;20207;-46
2021/10/25 12:03:12;;;;;;;6.27;4.00;;;;;;;21.50;50.70;102329.78;1773073;79;21315;-48
2021/10/25 12:05:39;;;;;;;6.28;3.85;;;;;;;21.50;50.68;102325.63;1769723;79;21702;-46
2021/10/25 12:08:11;;;;;;;7.80;4.17;;;;;;;21.49;50.67;102319.81;1768588;79;21090;-46
2021/10/25 12:10:38;;;;;;;6.67;3.95;;;;;;;21.50;50.63;102320.09;1765488;79;21004;-49
2021/10/25 12:13:06;;;;;;;5.80;3.90;;;;;;;21.49;50.60;102310.12;1750592;80;21077;-47
2021/10/25 12:15:36;;;;;;;5.75;3.15;;;;;;;21.50;50.58;102310.41;1753976;80;21137;-46
2021/10/25 12:18:04;;;;;;;5.20;3.73;;;;;;;21.50;50.54;102304.03;1752771;80;21065;-46
2021/10/25 12:20:34;;;;;;;5.22;3.35;;;;;;;21.50;50.54;102309.02;1753163;80;21001;-47
2021/10/25 12:23:14;;;;;;;6.05;3.98;;;;;;;21.51;50.52;102304.31;1754768;81;21031;-46
2021/10/25 12:25:40;;;;;;;6.37;3.62;;;;;;;21.50;50.49;102305.42;1761433;79;21542;-47
2021/10/25 12:28:14;;;;;;;5.17;3.70;;;;;;;21.51;50.48;102309.84;1761287;79;21205;-46
2021/10/25 12:30:41;;;;;;;6.40;3.50;;;;;;;21.50;50.45;102299.33;1771472;79;21614;-47
2021/10/25 12:33:07;;;;;;;5.53;3.60;;;;;;;21.51;50.41;102299.60;1763658;79;21063;-47
2021/10/25 12:35:41;;;;;;;6.17;3.25;;;;;;;21.50;50.42;102297.94;1752776;80;21707;-48
2021/10/25 12:38:14;;;;;;;6.00;3.60;;;;;;;21.51;50.39;102296.83;1735226;81;21068;-47
2021/10/25 12:40:45;;;;;;;5.37;3.15;;;;;;;21.51;50.35;102291.30;1759534;80;21129;-47
2021/10/25 12:43:12;;;;;;;5.55;3.52;;;;;;;21.51;50.35;102287.14;1761879;80;21451;-47
2021/10/25 12:45:41;;;;;;;5.33;3.22;;;;;;;21.51;50.32;102286.31;1765759;79;21084;-47
2021/10/25 12:48:08;;;;;;;5.65;3.47;;;;;;;21.51;50.30;102281.60;1755320;80;21015;-46
2021/10/25 12:50:36;;;;;;;5.47;3.67;;;;;;;21.51;50.27;102278.84;1767900;80;21062;-47
2021/10/25 12:53:09;;;;;;;5.28;3.75;;;;;;;21.52;50.26;102280.46;1763214;79;21283;-49
2021/10/25 12:55:36;;;;;;;5.28;3.47;;;;;;;21.52;50.24;102287.39;1763579;79;21565;-47
2021/10/25 12:58:07;;;;;;;6.17;3.37;;;;;;;21.52;50.23;102281.02;1764131;79;21562;-46